Time;durP1;ratioP1;P1;durP2;ratioP2;P2;SDS_P1;SDS_P2;PMS_P1;PMS_P2;Temp;Humidity;BMP_temperature;BMP_pressure;BME280_temperature;BME280_humidity;BME280_pressure;Samples;Min_cycle;Max_cycle;Signal;HPM_P1;HPM_P2
2024/01/24 00:00:07;;;;;;;5.93;1.08;;;;;;;-146.27;90.93;39254.19;5072507;28;20563;-72
2024/01/24 00:02:33;;;;;;;5.18;1.10;;;;;;;-146.27;91.55;39246.22;5070787;28;20052;-72
2024/01/24 00:04:58;;;;;;;6.10;1.75;;;;;;;-146.27;90.31;39216.41;5072469;28;20056;-71
2024/01/24 00:07:23;;;;;;;4.30;1.27;;;;;;;-146.27;91.50;39212.44;5071513;28;20020;-71
2024/01/24 00:09:49;;;;;;;4.50;1.00;;;;;;;-146.27;91.55;39280.00;5071441;28;20419;-70
2024/01/24 00:12:14;;;;;;;3.55;1.10;;;;;;;-146.27;92.26;39331.69;5070018;28;20106;-72
2024/01/24 00:14:40;;;;;;;3.22;1.17;;;;;;;-146.27;93.54;39291.94;5072424;28;20456;-72
2024/01/24 00:17:05;;;;;;;6.90;1.55;;;;;;;-146.27;92.92;39162.78;5071573;28;20047;-73
2024/01/24 00:19:31;;;;;;;7.85;1.42;;;;;;;-146.27;93.44;39299.88;5071527;28;20027;-72
2024/01/24 00:21:56;;;;;;;3.90;1.35;;;;;;;-146.27;93.30;39254.19;5069034;28;20431;-71
2024/01/24 00:24:21;;;;;;;2.03;0.82;;;;;;;-146.27;93.66;39323.72;5072063;28;20438;-72
2024/01/24 00:26:47;;;;;;;5.50;0.80;;;;;;;-146.27;93.57;39234.31;5070221;28;20075;-71
2024/01/24 00:29:12;;;;;;;6.10;1.05;;;;;;;-146.27;93.71;39156.81;5069848;28;20058;-73
2024/01/24 00:31:38;;;;;;;9.32;1.30;;;;;;;-146.27;93.95;39236.28;5070120;28;20036;-71
2024/01/24 00:34:03;;;;;;;2.30;0.75;;;;;;;-146.27;93.07;39250.19;5068540;28;20100;-73
2024/01/24 00:36:29;;;;;;;8.23;1.10;;;;;;;-146.27;93.91;39248.22;5070031;28;20013;-72
2024/01/24 00:38:54;;;;;;;10.68;1.48;;;;;;;-146.27;92.50;39176.69;5069436;28;20435;-73
2024/01/24 00:41:19;;;;;;;8.52;1.83;;;;;;;-146.27;93.04;39220.41;5068364;28;20031;-72
2024/01/24 00:43:45;;;;;;;3.70;0.73;;;;;;;-146.27;93.40;39285.97;5070768;28;20028;-72
2024/01/24 00:46:10;;;;;;;5.05;1.10;;;;;;;-146.27;92.93;39192.56;5070290;28;20111;-72
2024/01/24 00:48:35;;;;;;;11.55;1.30;;;;;;;-146.27;92.04;39148.84;5069010;28;20055;-73
2024/01/24 00:51:01;;;;;;;7.28;1.15;;;;;;;-146.27;92.51;39212.44;5069095;28;20036;-72
2024/01/24 00:53:28;;;;;;;10.88;1.55;;;;;;;-146.27;92.56;39280.00;5069770;28;20384;-71
2024/01/24 00:55:56;;;;;;;10.85;1.23;;;;;;;-146.27;93.06;39208.47;5069641;28;20039;-71
2024/01/24 00:58:22;;;;;;;9.18;1.25;;;;;;;-146.27;92.19;39174.69;5069658;28;20021;-72
2024/01/24 01:00:47;;;;;;;7.97;0.93;;;;;;;-146.27;93.79;39280.00;5067954;28;20052;-73
2024/01/24 01:03:13;;;;;;;4.53;0.82;;;;;;;-146.27;93.71;39172.69;5069980;28;20028;-73
2024/01/24 01:05:38;;;;;;;8.82;1.83;;;;;;;-146.27;94.91;39283.97;5070707;28;20035;-72
2024/01/24 01:08:05;;;;;;;5.85;1.15;;;;;;;-146.27;95.61;39164.75;5069571;28;20024;-72
2024/01/24 01:10:31;;;;;;;8.48;1.30;;;;;;;-146.27;97.35;39283.97;5068248;28;20028;-72
2024/01/24 01:12:56;;;;;;;13.35;2.15;;;;;;;-146.27;96.30;39196.56;5069864;28;20043;-72
2024/01/24 01:15:21;;;;;;;8.63;1.35;;;;;;;-146.27;95.95;39136.94;5070682;28;20465;-73
2024/01/24 01:17:47;;;;;;;14.07;1.58;;;;;;;-146.27;96.90;39212.44;5069114;28;20105;-74
2024/01/24 01:20:14;;;;;;;8.05;1.30;;;;;;;-146.27;96.48;39117.06;5069100;28;20125;-71
2024/01/24 01:22:40;;;;;;;8.07;1.27;;;;;;;-146.27;95.88;39152.84;5069689;28;20031;-72
2024/01/24 01:25:05;;;;;;;7.20;1.15;;;;;;;-146.27;95.91;39097.19;5068475;28;20420;-72
2024/01/24 01:27:31;;;;;;;9.10;1.40;;;;;;;-146.27;95.28;39132.97;5032329;28;1094715;-72
2024/01/24 01:29:56;;;;;;;10.20;1.23;;;;;;;-146.27;94.64;39057.47;5069567;28;20029;-72
2024/01/24 01:32:22;;;;;;;11.52;2.28;;;;;;;-146.27;94.45;39144.88;5067867;28;20027;-72
2024/01/24 01:34:47;;;;;;;9.20;1.60;;;;;;;-146.27;94.38;39065.41;5070595;28;20100;-72
2024/01/24 01:37:12;;;;;;;7.60;1.52;;;;;;;-146.27;94.04;39136.94;5070743;28;20052;-72
2024/01/24 01:39:38;;;;;;;13.32;1.42;;;;;;;-146.27;93.37;39099.19;5069372;28;20149;-72
2024/01/24 01:42:04;;;;;;;7.97;1.50;;;;;;;-146.27;93.86;39117.06;5070129;28;20062;-72
2024/01/24 01:44:29;;;;;;;12.00;1.63;;;;;;;-146.27;93.55;39166.75;5071172;28;20055;-71
2024/01/24 01:46:55;;;;;;;9.60;1.80;;;;;;;-146.27;93.00;39033.63;5068292;28;20024;-71
2024/01/24 01:49:21;;;;;;;19.13;2.72;;;;;;;-146.27;92.28;39049.50;5069352;28;20384;-73
2024/01/24 01:51:47;;;;;;;10.38;2.17;;;;;;;-146.27;93.38;39129.00;5069822;28;20024;-72
2024/01/24 01:54:14;;;;;;;8.43;1.70;;;;;;;-146.27;93.16;39132.97;5068757;28;20028;-71
2024/01/24 01:56:40;;;;;;;11.02;1.60;;;;;;;-146.27;94.47;39196.56;5068314;28;20500;-73
2024/01/24 01:59:06;;;;;;;11.30;1.48;;;;;;;-146.27;94.00;39156.81;5067208;28;20078;-70
2024/01/24 02:01:32;;;;;;;9.27;1.60;;;;;;;-146.27;94.10;39228.34;5069072;28;20559;-69
2024/01/24 02:03:59;;;;;;;13.52;1.98;;;;;;;-146.27;93.91;39188.59;5068617;28;20032;-72
2024/01/24 02:06:24;;;;;;;14.02;2.42;;;;;;;-146.27;93.41;39089.25;5069855;28;20099;-73
2024/01/24 02:08:50;;;;;;;9.57;1.75;;;;;;;-146.27;92.86;39063.41;5070375;28;20128;-72
2024/01/24 02:11:15;;;;;;;12.23;2.53;;;;;;;-146.27;93.23;39184.63;5068767;28;20056;-72
2024/01/24 02:13:40;;;;;;;14.55;2.03;;;;;;;-146.27;93.52;39186.63;5070787;28;20024;-72
2024/01/24 02:16:06;;;;;;;20.08;2.13;;;;;;;-146.27;93.01;39148.84;5066702;28;20025;-72
2024/01/24 02:18:32;;;;;;;13.10;1.73;;;;;;;-146.27;92.87;39228.34;5068760;28;20036;-73
2024/01/24 02:20:57;;;;;;;16.23;2.47;;;;;;;-146.27;93.18;39176.69;5070045;28;20535;-72
2024/01/24 02:23:25;;;;;;;13.77;2.17;;;;;;;-146.27;93.13;39184.63;5070102;28;20025;-72
2024/01/24 02:25:51;;;;;;;19.70;3.33;;;;;;;-146.27;93.25;39180.66;5070407;28;20487;-72
2024/01/24 02:28:17;;;;;;;13.57;2.70;;;;;;;-146.27;94.56;39272.06;5068875;28;20071;-72
2024/01/24 02:30:42;;;;;;;16.63;2.25;;;;;;;-146.27;94.03;39282.00;5070643;28;20720;-71
2024/01/24 02:33:08;;;;;;;25.60;3.05;;;;;;;-146.27;93.60;39254.19;5070501;28;20027;-71
2024/01/24 02:35:34;;;;;;;13.85;3.22;;;;;;;-146.27;93.66;39303.84;5070434;28;20036;-71
2024/01/24 02:38:00;;;;;;;26.67;3.90;;;;;;;-146.27;93.07;39232.31;5069045;28;20480;-73
2024/01/24 02:40:25;;;;;;;24.88;3.13;;;;;;;-146.27;92.87;39248.22;5070534;28;20028;-72
2024/01/24 02:42:51;;;;;;;17.27;3.13;;;;;;;-146.27;93.73;39367.44;5070349;28;20694;-72
2024/01/24 02:45:16;;;;;;;15.77;3.13;;;;;;;-146.27;93.88;39272.06;5069911;28;20020;-72
2024/01/24 02:47:41;;;;;;;12.50;3.42;;;;;;;-146.27;93.45;39331.69;5064508;28;20024;-72
2024/01/24 02:50:07;;;;;;;17.40;3.10;;;;;;;-146.27;94.59;39293.91;5070300;28;20028;-71
2024/01/24 02:52:33;;;;;;;14.25;2.63;;;;;;;-146.27;94.21;39425.06;5069991;28;20024;-72
2024/01/24 02:54:58;;;;;;;26.75;3.13;;;;;;;-146.27;93.57;39321.75;5069409;28;20029;-71
2024/01/24 02:57:23;;;;;;;27.60;4.30;;;;;;;-146.27;93.54;39291.94;5068653;28;20051;-72
2024/01/24 02:59:49;;;;;;;25.48;3.88;;;;;;;-146.27;94.26;39395.25;5069989;28;20051;-71
2024/01/24 03:02:14;;;;;;;18.98;3.08;;;;;;;-146.27;94.32;39437.00;5070030;28;20024;-71
2024/01/24 03:04:39;;;;;;;24.85;3.65;;;;;;;-146.27;93.64;39440.97;5069908;28;20024;-72
2024/01/24 03:07:05;;;;;;;21.08;3.20;;;;;;;-146.27;93.42;39385.31;5069397;28;20032;-71
2024/01/24 03:09:30;;;;;;;23.00;3.47;;;;;;;-146.27;92.89;39361.47;5070284;28;20027;-71
2024/01/24 03:11:55;;;;;;;20.25;3.70;;;;;;;-146.27;93.45;39401.22;5069590;28;20017;-71
2024/01/24 03:14:24;;;;;;;30.70;5.65;;;;;;;-146.27;93.33;39363.47;5070211;28;20035;-71
2024/01/24 03:16:50;;;;;;;20.05;3.78;;;;;;;-146.27;93.41;39419.09;5069349;28;20067;-70
2024/01/24 03:19:15;;;;;;;21.63;2.92;;;;;;;-146.27;92.44;39359.50;5069828;28;20432;-72
2024/01/24 03:21:41;;;;;;;19.42;3.97;;;;;;;-146.27;92.63;39446.94;5069258;28;20021;-72
2024/01/24 03:24:06;;;;;;;25.63;4.07;;;;;;;-146.27;93.08;39494.63;5069622;28;20029;-71
2024/01/24 03:26:32;;;;;;;26.33;3.10;;;;;;;-146.27;92.17;39423.09;5067572;28;20055;-72
2024/01/24 03:28:57;;;;;;;34.40;3.78;;;;;;;-146.27;91.79;39510.53;5068590;28;20032;-71
2024/01/24 03:31:23;;;;;;;16.15;3.35;;;;;;;-146.27;92.94;39554.25;5069569;28;20063;-72
2024/01/24 03:33:48;;;;;;;26.83;3.65;;;;;;;-146.27;92.32;39566.16;5069543;28;20024;-72
2024/01/24 03:36:14;;;;;;;19.77;3.22;;;;;;;-146.27;91.23;39496.63;5068706;28;20103;-71
2024/01/24 03:38:39;;;;;;;28.92;3.15;;;;;;;-146.27;90.75;39562.19;5068506;28;20542;-70
2024/01/24 03:41:04;;;;;;;28.33;4.20;;;;;;;-146.27;90.40;39558.22;5068676;28;20055;-72
2024/01/24 03:43:30;;;;;;;27.38;3.58;;;;;;;-146.27;90.66;39729.13;5069152;28;20028;-71
2024/01/24 03:45:55;;;;;;;20.60;3.13;;;;;;;-146.27;90.08;39727.13;5056540;28;20036;-70
2024/01/24 03:48:21;;;;;;;29.15;4.43;;;;;;;-146.27;89.25;39697.31;5066020;28;20067;-72
2024/01/24 03:50:46;;;;;;;29.65;4.43;;;;;;;-146.27;89.90;39733.09;5067677;28;20127;-71
2024/01/24 03:53:12;;;;;;;39.78;4.93;;;;;;;-146.27;89.29;39776.81;5069097;28;20031;-72
2024/01/24 03:55:37;;;;;;;30.50;4.82;;;;;;;-146.27;90.00;39701.31;5067974;28;20064;-72
2024/01/24 03:58:03;;;;;;;29.83;4.30;;;;;;;-146.27;90.77;39814.59;5068335;28;20071;-71
2024/01/24 04:00:28;;;;;;;22.88;4.10;;;;;;;-146.27;89.77;39737.06;5069033;28;20032;-72
2024/01/24 04:02:53;;;;;;;35.70;4.82;;;;;;;-146.27;89.96;39844.41;5065663;28;20384;-72
2024/01/24 04:05:19;;;;;;;37.17;5.47;;;;;;;-146.27;88.97;39876.19;5069379;28;20056;-73
2024/01/24 04:07:44;;;;;;;34.05;5.25;;;;;;;-146.27;88.81;39973.59;5067885;28;20025;-71
2024/01/24 04:10:10;;;;;;;25.75;4.10;;;;;;;-146.27;87.49;39991.47;5069095;28;20431;-71
2024/01/24 04:12:35;;;;;;;31.33;5.75;;;;;;;-146.27;87.38;40039.16;5069352;28;20024;-72
2024/01/24 04:15:00;;;;;;;29.15;4.65;;;;;;;-146.27;87.54;40114.69;5069916;28;20476;-72
2024/01/24 04:17:26;;;;;;;28.40;5.70;;;;;;;-146.27;86.70;39999.41;5069544;28;20033;-71
2024/01/24 04:19:51;;;;;;;25.08;4.35;;;;;;;-146.27;86.80;40070.97;5070922;28;20023;-72
2024/01/24 04:22:17;;;;;;;33.97;4.55;;;;;;;-146.27;87.28;40096.81;5071992;28;20021;-72
2024/01/24 04:24:42;;;;;;;25.15;5.25;;;;;;;-146.27;87.42;40078.91;5072935;28;20024;-72
2024/01/24 04:27:08;;;;;;;27.20;5.10;;;;;;;-146.27;87.40;40106.75;5071989;28;20045;-71
2024/01/24 04:29:34;;;;;;;34.92;6.43;;;;;;;-146.27;87.73;40106.75;5072733;28;20032;-70
2024/01/24 04:31:59;;;;;;;41.25;6.15;;;;;;;-146.27;86.90;40170.34;5072377;28;20124;-72
2024/01/24 04:34:24;;;;;;;41.53;4.80;;;;;;;-146.27;85.82;40313.44;5072889;28;20081;-70
2024/01/24 04:36:50;;;;;;;39.50;6.10;;;;;;;-146.27;84.52;40377.06;5070399;28;20115;-71
2024/01/24 04:39:15;;;;;;;36.45;5.90;;;;;;;-146.27;84.15;40448.63;5072797;28;20020;-71
2024/01/24 04:41:41;;;;;;;49.13;7.45;;;;;;;-146.27;83.30;40571.84;5072733;28;20016;-72
2024/01/24 04:44:06;;;;;;;41.22;7.05;;;;;;;-146.27;82.83;40665.28;5072315;28;20028;-72
2024/01/24 04:46:32;;;;;;;38.70;4.85;;;;;;;-146.27;82.38;40671.25;5069836;28;20073;-72
2024/01/24 04:48:58;;;;;;;34.15;5.65;;;;;;;-146.27;82.51;40669.25;5072463;28;20070;-73
2024/01/24 04:51:23;;;;;;;46.80;6.63;;;;;;;-146.27;82.13;40631.50;5071490;28;20032;-72
2024/01/24 04:53:50;;;;;;;32.45;5.00;;;;;;;-146.27;82.06;40796.47;5071672;28;20025;-72
2024/01/24 04:56:15;;;;;;;38.58;5.20;;;;;;;-146.27;82.45;40834.25;5071251;28;20487;-71
2024/01/24 04:58:41;;;;;;;40.67;6.22;;;;;;;-146.27;81.43;40752.75;5071125;28;20052;-71
2024/01/24 05:01:06;;;;;;;30.85;4.68;;;;;;;-146.27;82.36;40766.66;5060582;28;20105;-71
2024/01/24 05:03:32;;;;;;;48.42;6.60;;;;;;;-146.27;82.24;40909.78;5070675;28;20021;-72
2024/01/24 05:05:57;;;;;;;47.05;7.13;;;;;;;-146.27;81.81;40889.91;5068851;28;20028;-72
2024/01/24 05:08:23;;;;;;;52.75;7.55;;;;;;;-146.27;81.12;40969.44;5067926;28;20024;-72
2024/01/24 05:10:48;;;;;;;34.85;4.80;;;;;;;-146.27;81.35;41118.53;5071823;28;20052;-71
2024/01/24 05:13:14;;;;;;;35.65;6.30;;;;;;;-146.27;81.10;41050.94;5071119;28;20028;-72
2024/01/24 05:15:39;;;;;;;47.10;6.40;;;;;;;-146.27;81.42;41013.16;5070722;28;20036;-71
2024/01/24 05:18:04;;;;;;;43.15;5.95;;;;;;;-146.27;82.20;41060.88;5068029;28;20096;-71
2024/01/24 05:20:30;;;;;;;45.80;6.03;;;;;;;-146.27;82.60;41005.22;5071733;28;20566;-71
2024/01/24 05:22:55;;;;;;;37.40;7.22;;;;;;;-146.27;82.99;40989.31;5070900;28;20024;-72
2024/01/24 05:25:21;;;;;;;64.03;7.78;;;;;;;-146.27;82.66;40973.41;5070827;28;20051;-73
2024/01/24 05:27:47;;;;;;;36.25;6.47;;;;;;;-146.27;83.28;40995.28;5068041;28;20049;-71
2024/01/24 05:30:13;;;;;;;53.40;7.50;;;;;;;-146.27;82.66;40987.31;5070906;28;20602;-70
2024/01/24 05:32:38;;;;;;;42.95;5.53;;;;;;;-146.27;82.68;41056.91;5070401;28;20116;-70
2024/01/24 05:35:04;;;;;;;41.97;6.75;;;;;;;-146.27;82.36;41096.66;5070204;28;20025;-71
2024/01/24 05:37:29;;;;;;;28.48;4.50;;;;;;;-146.27;80.59;41227.88;5068180;28;20024;-71
2024/01/24 05:39:55;;;;;;;37.85;5.57;;;;;;;-146.27;79.95;41223.91;5070724;28;20530;-72
2024/01/24 05:42:21;;;;;;;46.42;5.60;;;;;;;-146.27;79.21;41345.19;5070344;28;20466;-72
2024/01/24 05:44:46;;;;;;;41.95;6.25;;;;;;;-146.27;79.02;41347.16;5069373;28;20028;-71
2024/01/24 05:47:11;;;;;;;33.22;5.45;;;;;;;-146.27;78.46;41382.97;5067566;28;20020;-72
2024/01/24 05:49:37;;;;;;;50.30;7.30;;;;;;;-146.27;78.58;41422.72;5069730;28;20035;-72
2024/01/24 05:52:05;;;;;;;37.75;8.30;;;;;;;-146.27;79.18;41488.34;5068746;28;20016;-72
2024/01/24 05:54:31;;;;;;;46.33;8.07;;;;;;;-146.27;81.56;41271.63;5070783;28;20380;-72
2024/01/24 05:56:57;;;;;;;47.90;8.32;;;;;;;-146.27;81.79;41092.69;5069718;28;20025;-71
2024/01/24 05:59:22;;;;;;;45.53;7.10;;;;;;;-146.27;82.88;41219.94;5069950;28;20028;-72
2024/01/24 06:01:48;;;;;;;37.92;6.22;;;;;;;-146.27;83.99;41070.81;5068804;28;20361;-72
2024/01/24 06:04:13;;;;;;;44.50;6.03;;;;;;;-146.27;84.37;41132.44;5070872;28;20193;-71
2024/01/24 06:06:39;;;;;;;45.03;8.00;;;;;;;-146.27;82.88;41052.94;5067039;28;20365;-72
2024/01/24 06:09:05;;;;;;;45.33;6.80;;;;;;;-146.27;82.79;41112.56;5069362;28;20504;-72
2024/01/24 06:11:31;;;;;;;50.47;6.05;;;;;;;-146.27;81.90;41184.16;5069692;28;20063;-71
2024/01/24 06:13:56;;;;;;;39.75;6.50;;;;;;;-146.27;81.58;41287.53;5069173;28;20052;-72
2024/01/24 06:16:21;;;;;;;47.38;6.70;;;;;;;-146.27;80.10;41386.94;5067639;28;20361;-72
2024/01/24 06:18:47;;;;;;;42.60;6.13;;;;;;;-146.27;79.88;41438.63;5069331;28;20403;-72
2024/01/24 06:21:13;;;;;;;42.25;7.05;;;;;;;-146.27;78.05;41585.75;5069382;28;20488;-72
2024/01/24 06:23:38;;;;;;;39.90;6.15;;;;;;;-146.27;76.04;41774.66;5069913;28;20036;-72
2024/01/24 06:26:04;;;;;;;47.35;5.90;;;;;;;-146.27;75.29;41798.50;5068460;28;20114;-72
2024/01/24 06:28:30;;;;;;;42.13;6.20;;;;;;;-146.27;73.85;41965.53;5069414;28;20111;-72
2024/01/24 06:30:55;;;;;;;38.05;6.05;;;;;;;-146.27;72.88;42088.84;5070689;28;20024;-71
2024/01/24 06:33:21;;;;;;;38.50;5.07;;;;;;;-146.27;72.20;42236.00;5066020;28;20070;-71
2024/01/24 06:35:47;;;;;;;28.25;4.18;;;;;;;-146.27;71.67;42321.50;5068512;28;20445;-72
2024/01/24 06:38:13;;;;;;;36.75;6.95;;;;;;;-146.27;71.61;42325.47;5065531;28;20030;-72
2024/01/24 06:40:39;;;;;;;37.53;7.10;;;;;;;-146.27;71.61;42405.03;5066165;28;20036;-72
2024/01/24 06:43:04;;;;;;;32.38;5.88;;;;;;;-146.27;71.56;42401.06;5066911;28;20025;-72
2024/01/24 06:45:30;;;;;;;46.15;6.32;;;;;;;-146.27;71.86;42418.94;5068979;28;20020;-72
2024/01/24 06:47:55;;;;;;;39.90;5.13;;;;;;;-146.27;72.02;42476.63;5069303;28;20418;-72
2024/01/24 06:50:20;;;;;;;42.92;7.00;;;;;;;-146.27;71.08;42440.81;5069795;28;20030;-72
2024/01/24 06:52:46;;;;;;;40.65;5.03;;;;;;;-146.27;71.22;42476.63;5065360;28;20048;-72
2024/01/24 06:55:13;;;;;;;44.92;5.68;;;;;;;-146.27;70.48;42466.69;5067925;28;20102;-73
2024/01/24 06:57:39;;;;;;;37.33;6.50;;;;;;;-146.27;71.09;42524.34;5068580;28;20094;-72
2024/01/24 07:00:05;;;;;;;43.35;6.82;;;;;;;-146.27;71.24;42558.16;5059646;28;20520;-73
2024/01/24 07:02:30;;;;;;;39.80;6.00;;;;;;;-146.27;70.80;42639.69;5068478;28;20035;-72
2024/01/24 07:04:56;;;;;;;46.45;7.35;;;;;;;-146.27;71.08;42566.13;5067757;28;20017;-73
2024/01/24 07:07:21;;;;;;;47.70;6.38;;;;;;;-146.27;70.43;42691.41;5064156;28;20020;-72
2024/01/24 07:09:47;;;;;;;44.45;6.72;;;;;;;-146.27;70.34;42649.66;5068181;28;20480;-71
2024/01/24 07:12:13;;;;;;;51.13;7.68;;;;;;;-146.27;69.71;42643.69;5062521;28;20031;-71
2024/01/24 07:14:39;;;;;;;44.00;6.63;;;;;;;-146.27;69.76;42701.34;5066594;28;20183;-73
2024/01/24 07:17:05;;;;;;;40.60;6.10;;;;;;;-146.27;69.47;42711.31;5069126;28;20107;-72
2024/01/24 07:19:30;;;;;;;41.67;5.82;;;;;;;-146.27;69.31;42770.97;5069651;28;20035;-72
2024/01/24 07:21:56;;;;;;;33.88;6.05;;;;;;;-146.27;69.36;42866.44;5068531;28;20020;-72
2024/01/24 07:24:21;;;;;;;30.40;4.95;;;;;;;-146.27;69.08;42874.38;5069831;28;20036;-70
2024/01/24 07:26:46;;;;;;;35.40;5.95;;;;;;;-146.27;68.91;42798.81;5062866;28;20560;-72
2024/01/24 07:29:12;;;;;;;36.53;5.50;;;;;;;-146.27;68.40;42854.50;5057180;28;20085;-71
2024/01/24 07:31:39;;;;;;;38.85;5.72;;;;;;;-146.27;68.43;42918.16;5061836;28;20516;-74
2024/01/24 07:34:05;;;;;;;32.60;5.40;;;;;;;-146.27;69.08;42975.81;5063890;28;20035;-73
2024/01/24 07:36:30;;;;;;;32.97;5.78;;;;;;;-146.27;68.35;42959.91;5069735;28;20478;-74
2024/01/24 07:38:56;;;;;;;38.10;5.32;;;;;;;-146.27;69.01;42969.84;5067735;28;20028;-76
2024/01/24 07:41:23;;;;;;;42.22;5.57;;;;;;;-146.27;69.34;43023.56;5067396;28;20024;-72
2024/01/24 07:43:48;;;;;;;32.97;5.95;;;;;;;-146.27;69.10;42930.09;5067868;28;20134;-74
2024/01/24 07:46:14;;;;;;;34.15;6.53;;;;;;;-146.27;69.60;43045.44;5069623;28;20044;-74
2024/01/24 07:48:39;;;;;;;38.78;5.57;;;;;;;-146.27;69.16;42991.75;5069560;28;20060;-73
2024/01/24 07:51:05;;;;;;;48.13;8.18;;;;;;;-146.27;68.85;43009.63;5068729;28;20021;-75
2024/01/24 07:53:30;;;;;;;50.17;5.85;;;;;;;-146.27;69.13;43049.41;5072041;28;20082;-75
2024/01/24 07:55:56;;;;;;;34.28;5.60;;;;;;;-146.27;69.70;43067.31;5073590;28;20048;-75
2024/01/24 07:58:22;;;;;;;26.77;4.75;;;;;;;-146.27;69.78;43099.16;5070741;28;20019;-75
2024/01/24 08:00:47;;;;;;;46.30;4.60;;;;;;;-146.27;69.59;43132.97;5067311;28;20032;-75
2024/01/24 08:03:12;;;;;;;34.42;5.30;;;;;;;-146.27;69.50;43103.13;5061268;28;20013;-74
2024/01/24 08:05:38;;;;;;;32.70;6.63;;;;;;;-146.27;70.51;43176.72;5062504;28;20053;-75
2024/01/24 08:08:03;;;;;;;40.13;6.32;;;;;;;-146.27;70.17;43188.66;5061660;28;20489;-76
2024/01/24 08:10:29;;;;;;;37.53;5.57;;;;;;;-146.27;69.80;43214.50;5063779;28;20070;-75
2024/01/24 08:12:54;;;;;;;30.77;6.25;;;;;;;-146.27;69.97;43234.41;5065024;28;20101;-75
2024/01/24 08:15:20;;;;;;;35.17;5.50;;;;;;;-146.27;69.98;43284.13;5062046;28;20027;-74
2024/01/24 08:17:47;;;;;;;44.28;6.15;;;;;;;-146.27;69.59;43256.28;5064402;28;20067;-74
2024/01/24 08:20:15;;;;;;;41.85;5.55;;;;;;;-146.27;69.85;43339.84;5064595;28;20027;-74
2024/01/24 08:22:41;;;;;;;30.85;5.22;;;;;;;-146.27;69.39;43367.69;5062087;28;20051;-75
2024/01/24 08:25:07;;;;;;;36.45;6.50;;;;;;;-146.27;69.02;43359.72;5067098;28;20507;-74
2024/01/24 08:27:32;;;;;;;40.60;5.95;;;;;;;-146.27;69.38;43437.31;5060445;28;20048;-75
2024/01/24 08:29:59;;;;;;;38.30;5.65;;;;;;;-146.27;69.14;43504.94;5064978;28;20104;-74
2024/01/24 08:32:25;;;;;;;45.70;6.72;;;;;;;-146.27;69.68;43554.66;5065499;28;20036;-75
2024/01/24 08:34:51;;;;;;;48.20;6.63;;;;;;;-146.27;69.64;43606.38;5060626;28;20044;-73
2024/01/24 08:37:16;;;;;;;35.40;6.50;;;;;;;-146.27;69.76;43640.22;5061601;28;20087;-74
2024/01/24 08:39:42;;;;;;;31.10;4.45;;;;;;;-146.27;69.53;43699.88;5061858;28;20476;-73
2024/01/24 08:42:07;;;;;;;38.28;5.45;;;;;;;-146.27;69.39;43709.84;5062233;28;20033;-73
2024/01/24 08:44:33;;;;;;;29.45;6.15;;;;;;;-146.27;69.40;43709.84;5061666;28;20021;-73
2024/01/24 08:46:58;;;;;;;30.55;4.53;;;;;;;-146.27;69.75;43765.53;5062892;28;20472;-74
2024/01/24 08:49:24;;;;;;;40.17;5.60;;;;;;;-146.27;69.55;43827.22;5064365;28;20392;-74
2024/01/24 08:51:50;;;;;;;37.92;5.63;;;;;;;-146.27;69.96;43841.13;5060434;28;20016;-73
2024/01/24 08:54:16;;;;;;;38.60;5.20;;;;;;;-146.27;70.32;43904.81;5063772;28;20024;-72
2024/01/24 08:56:41;;;;;;;42.50;6.75;;;;;;;-146.27;70.32;43916.75;5059535;28;20032;-74
2024/01/24 08:59:06;;;;;;;36.10;5.38;;;;;;;-146.27;70.18;43849.09;5069985;28;20123;-74
2024/01/24 09:01:32;;;;;;;36.47;5.40;;;;;;;-146.27;70.39;43904.81;5062692;28;20489;-74
2024/01/24 09:03:58;;;;;;;44.72;6.55;;;;;;;-146.27;69.76;43892.88;5062459;28;20021;-74
2024/01/24 09:06:25;;;;;;;39.80;6.93;;;;;;;-146.27;69.30;43938.63;5062717;28;20474;-73
2024/01/24 09:08:54;;;;;;;44.47;6.38;;;;;;;-146.27;69.68;43940.63;5060217;28;20044;-74
2024/01/24 09:11:20;;;;;;;35.58;5.90;;;;;;;-146.27;69.73;43940.63;5060365;28;20560;-73
2024/01/24 09:13:47;;;;;;;45.45;6.18;;;;;;;-146.27;69.57;43908.78;5053406;28;20017;-74
2024/01/24 09:16:12;;;;;;;41.05;5.88;;;;;;;-146.27;70.07;43964.50;5064190;28;20074;-73
2024/01/24 09:18:39;;;;;;;32.53;6.88;;;;;;;-146.27;70.04;43948.56;5063053;28;20033;-73
2024/01/24 09:21:04;;;;;;;28.25;4.75;;;;;;;-146.27;70.33;43956.53;5066565;28;20039;-72
2024/01/24 09:23:30;;;;;;;33.88;3.83;;;;;;;-146.27;70.23;43986.38;5068825;28;20477;-72
2024/01/24 09:25:55;;;;;;;29.73;4.93;;;;;;;-146.27;70.81;43952.56;5061067;28;20651;-74
2024/01/24 09:28:20;;;;;;;33.13;7.03;;;;;;;-146.27;70.64;44010.25;5069924;28;20082;-72
2024/01/24 09:30:46;;;;;;;39.60;5.95;;;;;;;-146.27;70.12;43944.59;5069826;28;20115;-73
2024/01/24 09:33:11;;;;;;;47.75;7.03;;;;;;;-146.27;70.05;43952.56;5065053;28;20055;-74
2024/01/24 09:35:37;;;;;;;33.20;5.68;;;;;;;-146.27;70.25;44006.25;5063365;28;20031;-73
2024/01/24 09:38:04;;;;;;;44.03;7.60;;;;;;;-146.27;70.01;43912.75;5060896;28;20035;-74
2024/01/24 09:40:29;;;;;;;35.75;5.60;;;;;;;-146.27;69.96;43930.66;5070067;28;20036;-73
2024/01/24 09:42:54;;;;;;;44.92;6.95;;;;;;;-146.27;69.63;43936.63;5069277;28;20027;-71
2024/01/24 09:45:22;;;;;;;42.15;6.28;;;;;;;-146.27;69.63;44008.25;5056428;28;20369;-73
2024/01/24 09:47:49;;;;;;;35.45;6.20;;;;;;;-146.27;69.42;44044.06;5061550;28;20021;-73
2024/01/24 09:50:15;;;;;;;36.38;5.47;;;;;;;-146.27;68.61;44024.16;5068543;28;20422;-73
2024/01/24 09:52:41;;;;;;;35.38;5.22;;;;;;;-146.27;67.69;44004.28;5070226;28;20169;-72
2024/01/24 09:55:09;;;;;;;39.70;5.45;;;;;;;-146.27;67.70;43964.50;5053755;28;20059;-73
2024/01/24 09:57:34;;;;;;;42.75;5.78;;;;;;;-146.27;67.63;44117.69;5061620;28;20082;-73
2024/01/24 10:00:00;;;;;;;42.53;6.00;;;;;;;-146.27;66.95;44099.78;5062653;28;20028;-73
2024/01/24 10:02:28;;;;;;;36.53;6.22;;;;;;;-146.27;66.45;44129.63;5058682;28;20051;-74
2024/01/24 10:04:54;;;;;;;37.40;5.85;;;;;;;-146.27;66.62;44067.94;5060561;28;20032;-74
2024/01/24 10:07:20;;;;;;;26.30;4.45;;;;;;;-146.27;66.83;44107.72;5056472;28;20028;-72
2024/01/24 10:10:05;;;;;;;32.63;5.80;;;;;;;-146.27;66.29;44107.72;5059736;28;20020;-73
2024/01/24 10:12:31;;;;;;;42.00;6.22;;;;;;;-146.27;66.48;44191.28;5069502;28;20017;-73
2024/01/24 10:14:56;;;;;;;28.35;4.90;;;;;;;-146.27;66.52;44115.69;5070108;28;20369;-74
2024/01/24 10:17:21;;;;;;;35.22;6.28;;;;;;;-146.27;66.82;44105.75;5069213;28;20028;-72
2024/01/24 10:19:46;;;;;;;42.70;8.18;;;;;;;-146.27;66.98;44109.72;5063236;28;20530;-73
2024/01/24 10:22:12;;;;;;;38.83;5.63;;;;;;;-146.27;67.25;44085.84;5069857;28;20578;-72
2024/01/24 10:24:37;;;;;;;31.75;5.65;;;;;;;-146.27;67.39;44113.69;5064286;28;20070;-74
2024/01/24 10:27:03;;;;;;;37.42;4.75;;;;;;;-146.27;67.86;44155.47;5061229;28;20040;-73
2024/01/24 10:29:29;;;;;;;42.92;6.28;;;;;;;-146.27;67.55;44135.59;5064042;28;20111;-74
2024/01/24 10:31:56;;;;;;;39.17;5.70;;;;;;;-146.27;68.05;44199.25;5051855;28;20032;-73
2024/01/24 10:34:30;;;;;;;37.08;6.03;;;;;;;-146.27;68.64;44187.31;5064118;28;20024;-73
2024/01/24 10:36:58;;;;;;;35.22;5.13;;;;;;;-146.27;68.52;44231.09;5051916;28;20464;-74
2024/01/24 10:39:27;;;;;;;22.80;4.80;;;;;;;-146.27;68.42;44241.03;5057651;28;20052;-74
2024/01/24 10:42:00;;;;;;;40.40;7.15;;;;;;;-146.27;68.05;44137.56;5055541;28;20036;-75
2024/01/24 10:44:31;;;;;;;35.03;5.28;;;;;;;-146.27;68.26;44264.91;5056769;28;20080;-74
2024/01/24 10:47:01;;;;;;;38.78;5.07;;;;;;;-146.27;67.40;44239.03;5054069;28;20032;-73
2024/01/24 10:49:30;;;;;;;35.05;4.75;;;;;;;-146.27;66.94;44169.41;5053000;28;20031;-74
2024/01/24 10:51:56;;;;;;;47.35;6.13;;;;;;;-146.27;67.08;44223.13;5063087;28;20029;-74
2024/01/24 10:54:22;;;;;;;25.33;5.00;;;;;;;-146.27;66.75;44302.72;5064643;28;20609;-75
2024/01/24 10:56:50;;;;;;;38.08;5.63;;;;;;;-146.27;66.75;44243.03;5066103;28;20024;-75
2024/01/24 10:59:19;;;;;;;37.75;6.82;;;;;;;-146.27;66.18;44286.78;5060881;28;20036;-72
2024/01/24 11:01:45;;;;;;;17.45;4.28;;;;;;;-146.27;66.24;44338.53;5056465;28;20051;-73